Algoma, WV

12:47 PM EDT on July 28, 2016 (GMT -0400)
Parkview Heights | | Change Station
Active Advisory: Flash Flood Watch

Elev 2402 ft 37.24 °N, 81.28 °W | Updated 27 seconds ago

Mostly Cloudy
Mostly Cloudy
81.1 °F
Feels Like 85 °F
N
0.0
Wind Variable Wind from North
Gusts 3.0 mph

Today
High -- | Low -- °F
--% Chance of Precip.
Yesterday
High -- | Low -- °F
Precip. -- in
Pressure 29.94 in
Visibility 10.0 miles
Clouds Few 1800 ft
Scattered Clouds 4200 ft
Mostly Cloudy 6500 ft
Heat Index 85 °F
Dew Point 72 °F
Humidity 73%
Rainfall 0.30 in
Snow Depth Not available.
6:27 AM 8:36 PM
Waning Crescent, 30% visible
METAR KBLF 281552Z AUTO 24006KT 10SM FEW018 SCT042 BKN065 24/19 A3006 RMK AO2 SLP136 T02440189
Pressure 29.94 in
Visibility 10.0 miles
Clouds Few 1800 ft
Scattered Clouds 4200 ft
Mostly Cloudy 6500 ft
Heat Index 85 °F
Dew Point 72 °F
Humidity 73%
Rainfall 0.30 in
Snow Depth Not available.
6:27 AM 8:36 PM
Waning Crescent, 30% visible
METAR KBLF 281552Z AUTO 24006KT 10SM FEW018 SCT042 BKN065 24/19 A3006 RMK AO2 SLP136 T02440189

10-Day Weather Forecast

Almanac

Astronomy

Jul. 28, 2016 Rise Set
Actual Time
Civil Twilight
Nautical Twilight
Astronomical Twilight
Moon
Length of Visible Light
Length of Day
Tomorrow will be .
, % of the Moon is Illuminated

Today's Extremes

State Highs State Lows

Community

WunderPhotos

Upload Photos

1,928,153 photos uploaded!

WunderBlog® & News

Nearby

Air Quality

  Air Quality AQ Index Pollutant
Not available.

Snow Depth

Station Depth Elevation

Earthquake Activity

City Distance Mag. Time & Date
Minimum magnitude displayed is 2.5.

Coastal Water Temperatures

Place Temperature

Stations

Nearby Weather Stations

Station Location Temp. Windchill Dew Point Humidity Wind Precip. Elev Updated Type
                   

Watches & Warnings

Flash Flood Watch
Issued: 10:07 AM EDT Jul. 28, 2016 – National Weather Service

... Flash Flood Watch in effect through Friday morning...

The National Weather Service in Charleston has expanded the

* Flash Flood Watch to include portions of southwest Virginia
and southern West Virginia... including the following areas...
in southwest Virginia... Buchanan and Dickenson. In southern
West Virginia... McDowell... Raleigh and Wyoming.

* Through Friday morning

* the ground in the watch area is quite wet from rounds of heavy
rain during the past few days. Total rainfall amounts of 2 to 3
inches with locally higher amounts are possible through
tonight.

* If this amount of rainfall is realized... some areas may see
flash flooding of small streams and creeks and roads...
especially in low lying and poor drainage areas.

Precautionary/preparedness actions...

A Flash Flood Watch means that conditions may develop that lead
to flash flooding. Flash flooding is a very dangerous situation.

You should monitor later forecasts and be prepared to take action
should flash flood warnings be issued.